createdAt,value
2016-02-02T00:17:34.127Z,70
2016-02-02T00:17:44.708Z,70
2016-02-02T00:17:55.208Z,70
2016-02-02T00:18:05.677Z,70
2016-02-02T00:18:15.990Z,70
2016-02-02T00:18:26.521Z,70
2016-02-02T00:18:36.880Z,70
2016-02-02T00:18:47.351Z,70
2016-02-02T00:18:57.726Z,70
2016-02-02T00:19:08.242Z,70
2016-02-02T00:19:18.632Z,69
2016-02-02T00:19:29.273Z,69
2016-02-02T00:19:39.679Z,69
2016-02-02T00:19:50.010Z,69
2016-02-02T00:20:01.010Z,69
2016-02-02T00:35:43.813Z,66
2016-02-02T00:35:54.329Z,66
2016-02-02T00:36:05.047Z,66
2016-02-02T00:36:16.360Z,66
2016-02-02T00:36:26.969Z,66
2016-02-02T00:44:47.715Z,68
2016-02-02T00:44:58.121Z,69
2016-02-02T00:45:08.965Z,68
2016-02-02T00:46:13.374Z,68
2016-02-02T00:46:23.843Z,68
2016-02-02T00:46:34.890Z,69
2016-02-02T00:47:41.924Z,69
2016-02-02T00:47:52.613Z,69
2016-02-02T00:48:03.317Z,69
2016-02-02T00:48:14.255Z,69
2016-02-02T00:48:24.927Z,69
2016-02-02T00:48:35.630Z,69
2016-02-02T00:48:45.930Z,69
2016-02-02T00:48:56.492Z,69
2016-02-02T00:49:06.883Z,69
2016-02-02T00:49:17.305Z,69
2016-02-02T00:49:28.024Z,69
2016-02-02T00:49:38.367Z,69
2016-02-02T00:49:49.386Z,69
2016-02-02T00:49:59.761Z,69
2016-02-02T00:50:11.667Z,69
2016-02-02T00:51:16.529Z,69
2016-02-02T00:51:26.935Z,69
2016-02-02T00:51:37.576Z,69
2016-02-02T00:51:56.125Z,69
2016-02-02T00:52:06.844Z,69
2016-02-02T00:52:17.375Z,69
2016-02-02T00:52:28.204Z,69
2016-02-02T00:52:38.610Z,69
2016-02-02T00:52:49.129Z,69
2016-02-02T00:52:59.536Z,69
2016-02-02T00:53:10.161Z,69
2016-02-02T00:53:20.676Z,69
2016-02-02T00:53:31.426Z,70
2016-02-02T00:53:56.570Z,69
2016-02-02T00:54:07.195Z,69
2016-02-02T00:54:17.695Z,69
2016-02-02T00:54:28.273Z,69
2016-02-02T01:03:00.180Z,69
2016-02-02T01:03:10.571Z,69
2016-02-02T01:03:21.196Z,69
2016-02-02T01:03:31.789Z,69
2016-02-02T01:03:42.602Z,69
2016-02-02T01:03:53.213Z,69
2016-02-02T01:04:04.385Z,69
2016-02-02T01:04:16.119Z,69
2016-02-02T01:04:28.979Z,69
2016-02-02T01:04:40.416Z,69
2016-02-02T01:04:51.263Z,69
2016-02-02T01:05:02.544Z,69
2016-02-02T01:05:14.513Z,69
2016-02-02T01:05:25.826Z,69
2016-02-02T01:05:36.607Z,69
2016-02-02T01:05:47.266Z,69
2016-02-02T01:05:59.047Z,69
2016-02-02T01:06:09.875Z,69
2016-02-02T01:06:20.469Z,69
2016-02-02T01:06:31.094Z,69
2016-02-02T01:06:46.191Z,69
2016-02-02T01:06:57.019Z,69
2016-02-02T01:07:08.097Z,69
2016-02-02T01:07:18.878Z,69
2016-02-02T01:07:30.363Z,69
2016-02-02T01:07:41.425Z,69
2016-02-02T01:07:52.335Z,69
2016-02-02T01:08:04.164Z,69
2016-02-02T01:08:15.914Z,69
2016-02-02T01:08:26.570Z,69
2016-02-02T01:08:37.664Z,69
2016-02-02T01:08:48.306Z,69
2016-02-02T01:08:58.900Z,69
2016-02-02T01:09:09.635Z,69
2016-02-02T01:09:21.370Z,69
2016-02-02T01:10:29.310Z,69
2016-02-02T01:10:41.013Z,69
2016-02-02T01:10:53.515Z,69
2016-02-02T01:11:05.062Z,69
2016-02-02T01:11:16.656Z,69
2016-02-02T01:11:31.547Z,69
2016-02-02T01:11:46.846Z,69
2016-02-02T01:13:01.631Z,68
2016-02-02T01:13:13.131Z,68
2016-02-02T01:13:24.631Z,68
2016-02-02T01:13:35.881Z,68
2016-02-02T01:13:46.883Z,68
2016-02-02T01:13:58.164Z,68
2016-02-02T01:14:09.633Z,68
2016-02-02T01:14:21.226Z,68
2016-02-02T01:14:31.976Z,68
2016-02-02T01:14:42.976Z,68
2016-02-02T01:14:53.948Z,68
2016-02-02T01:15:06.386Z,68
2016-02-02T01:15:18.214Z,68
2016-02-02T01:15:29.104Z,68
2016-02-02T01:15:39.526Z,68
2016-02-02T01:15:49.857Z,67
2016-02-02T01:16:00.373Z,67
2016-02-02T01:16:10.982Z,67
2016-02-02T01:16:21.467Z,67
2016-02-02T01:16:31.842Z,67
2016-02-02T01:16:47.642Z,67
2016-02-02T01:16:58.017Z,67
2016-02-02T01:17:08.454Z,67
2016-02-02T01:17:18.751Z,67
2016-02-02T01:17:30.845Z,67
2016-02-02T01:17:42.970Z,67
2016-02-02T01:17:53.487Z,67
2016-02-02T01:18:03.941Z,67
2016-02-02T01:18:14.456Z,67
2016-02-02T01:18:24.988Z,67
2016-02-02T01:18:35.379Z,67
2016-02-02T01:18:45.601Z,67
2016-02-02T01:18:55.929Z,67
2016-02-02T01:19:06.335Z,67
2016-02-02T01:19:17.226Z,67
2016-02-02T01:19:27.757Z,67
2016-02-02T01:20:37.165Z,67
2016-02-02T01:20:47.528Z,67
2016-02-02T01:20:57.871Z,67
2016-02-02T01:21:17.668Z,67
2016-02-02T01:21:28.246Z,67
2016-02-02T01:21:38.496Z,67
2016-02-02T01:21:48.843Z,67
2016-02-02T01:21:59.328Z,67
2016-02-02T01:22:09.703Z,67
2016-02-02T01:22:20.796Z,67
2016-02-02T01:22:33.812Z,68
2016-02-02T01:22:44.609Z,68
2016-02-02T01:22:55.189Z,67
2016-02-02T01:23:06.142Z,67
2016-02-02T01:23:16.517Z,67
2016-02-02T01:30:25.580Z,67
2016-02-02T01:30:35.783Z,67
2016-02-02T01:30:46.129Z,67
2016-02-02T01:30:56.363Z,67
2016-02-02T01:31:06.863Z,67
2016-02-02T01:31:17.379Z,67
2016-02-02T01:31:27.707Z,67
2016-02-02T01:31:37.988Z,67
2016-02-02T01:31:48.256Z,67
2016-02-02T01:31:58.647Z,67
2016-02-02T01:32:09.209Z,67
2016-02-02T01:32:19.756Z,68
2016-02-02T01:32:29.990Z,68
2016-02-02T01:32:40.350Z,68
2016-02-02T01:32:50.635Z,68
2016-02-02T01:33:00.932Z,68
2016-02-02T01:33:15.416Z,68
2016-02-02T01:33:25.838Z,68
2016-02-02T01:33:36.182Z,68
2016-02-02T01:33:46.715Z,68
2016-02-02T01:33:57.246Z,68
2016-02-02T01:34:07.715Z,68
2016-02-02T01:34:18.012Z,68
2016-02-02T01:34:28.324Z,68
2016-02-02T01:34:38.545Z,68
2016-02-02T01:34:48.781Z,68
2016-02-02T01:34:59.000Z,68
2016-02-02T01:35:12.735Z,68
2016-02-02T01:39:30.326Z,68
2016-02-02T01:39:40.873Z,68
2016-02-02T01:39:51.297Z,68
2016-02-02T01:40:01.860Z,68
2016-02-02T01:40:13.672Z,69
2016-02-02T01:40:24.797Z,69
2016-02-02T01:40:36.063Z,69
2016-02-02T01:48:44.494Z,68
2016-02-02T01:48:55.139Z,68
2016-02-02T01:49:06.592Z,68
2016-02-02T01:49:17.983Z,68
2016-02-02T01:49:29.076Z,68
2016-02-02T01:49:39.686Z,68
2016-02-02T01:49:50.360Z,68
2016-02-02T01:50:02.656Z,68
2016-02-02T01:50:13.953Z,68
2016-02-02T01:50:26.156Z,68
2016-02-02T01:50:37.000Z,68
2016-02-02T01:50:47.894Z,68
2016-02-02T01:50:58.694Z,68
2016-02-02T01:51:10.491Z,68
2016-02-02T01:51:21.819Z,68
2016-02-02T01:51:32.866Z,68
2016-02-02T01:51:44.209Z,68
2016-02-02T01:51:55.180Z,68
2016-02-02T01:52:06.727Z,68
2016-02-02T01:52:19.227Z,68
2016-02-02T01:52:33.258Z,68
2016-02-02T01:52:43.758Z,68
2016-02-02T01:52:54.325Z,68
2016-02-02T01:53:04.872Z,68
2016-02-02T01:53:15.934Z,68
2016-02-02T01:53:26.497Z,68
2016-02-02T01:53:36.950Z,68
2016-02-02T01:53:47.936Z,67
2016-02-02T01:53:59.077Z,68
2016-02-02T01:54:10.030Z,68
2016-02-02T01:54:20.592Z,68
2016-02-02T01:54:31.499Z,68
2016-02-02T01:54:41.967Z,68
2016-02-02T01:54:52.579Z,68
2016-02-02T01:55:03.422Z,68
2016-02-02T01:56:06.428Z,68
2016-02-02T01:56:17.038Z,68
2016-02-02T01:56:27.725Z,68
2016-02-02T01:56:38.397Z,68
2016-02-02T01:56:48.775Z,68
2016-02-02T01:56:59.447Z,68
2016-02-02T01:57:10.463Z,68
2016-02-02T01:57:20.994Z,68
2016-02-02T01:57:53.122Z,68
2016-02-02T01:58:59.640Z,67
2016-02-02T01:59:09.812Z,67
2016-02-02T01:59:20.125Z,67
2016-02-02T01:59:30.500Z,67
2016-02-02T01:59:41.156Z,67
2016-02-02T01:59:51.456Z,67
2016-02-02T02:00:03.565Z,67
2016-02-02T02:00:14.269Z,67
2016-02-02T02:00:26.207Z,67
2016-02-02T02:00:36.441Z,67
2016-02-02T02:00:46.832Z,67
2016-02-02T02:00:57.210Z,67
2016-02-02T02:01:07.413Z,67
2016-02-02T02:01:17.757Z,67
2016-02-02T02:02:21.649Z,67
2016-02-02T02:02:31.868Z,67
2016-02-02T02:02:42.228Z,67
2016-02-02T02:02:52.465Z,67
2016-02-02T02:03:02.731Z,67
2016-02-02T02:03:13.137Z,67
2016-02-02T02:03:23.559Z,67
2016-02-02T02:03:33.934Z,67
2016-02-02T02:03:44.652Z,67
2016-02-02T02:03:55.062Z,67
2016-02-02T02:04:05.437Z,67
2016-02-02T02:04:15.952Z,67
2016-02-02T02:04:26.327Z,67
2016-02-02T02:04:36.671Z,67
2016-02-02T02:04:47.046Z,67
2016-02-02T02:04:57.707Z,67
2016-02-02T02:05:08.270Z,67
2016-02-02T02:05:18.817Z,66
2016-02-02T02:05:28.957Z,66
2016-02-02T02:05:39.488Z,67
2016-02-02T02:05:49.756Z,67
2016-02-02T02:06:00.006Z,66
2016-02-02T02:06:52.353Z,66
2016-02-02T02:07:02.540Z,67
2016-02-02T02:07:12.884Z,67
2016-02-02T02:07:23.665Z,66
2016-02-02T02:07:34.525Z,66
2016-02-02T02:07:45.009Z,66
2016-02-02T02:07:55.262Z,66
2016-02-02T02:08:05.934Z,66
2016-02-02T02:08:16.246Z,66
2016-02-02T02:08:26.481Z,66
2016-02-02T02:08:36.825Z,66
2016-02-02T02:08:47.168Z,66
2016-02-02T02:08:57.843Z,66
2016-02-02T02:09:08.156Z,66
2016-02-02T02:09:18.531Z,66
2016-02-02T02:09:28.874Z,66
2016-02-02T02:09:39.391Z,66
2016-02-02T02:09:49.612Z,66
2016-02-02T02:09:59.987Z,67
2016-02-02T02:10:11.987Z,66
2016-02-02T02:10:23.940Z,66
2016-02-02T02:10:34.206Z,66
2016-02-02T02:10:44.518Z,66
2016-02-02T02:10:54.895Z,66
2016-02-02T02:11:05.442Z,66
2016-02-02T02:11:16.176Z,66
2016-02-02T02:11:26.583Z,66
2016-02-02T02:11:37.004Z,66
2016-02-02T02:11:47.364Z,66
2016-02-02T02:11:57.757Z,66
2016-02-02T02:12:08.039Z,66
2016-02-02T02:12:18.320Z,66
2016-02-02T02:12:28.586Z,66
2016-02-02T02:12:38.757Z,66
2016-02-02T02:12:49.182Z,66
2016-02-02T02:12:59.542Z,66
2016-02-02T02:16:09.504Z,65
2016-02-02T02:16:20.191Z,65
2016-02-02T02:16:31.011Z,65
2016-02-02T02:17:38.373Z,65
2016-02-02T02:17:48.923Z,65
2016-02-02T02:17:59.642Z,65
2016-02-02T02:18:10.392Z,65
2016-02-02T02:18:20.860Z,65
2016-02-02T02:18:31.360Z,65
2016-02-02T02:18:41.704Z,65
2016-02-02T02:18:52.284Z,65
2016-02-02T02:19:02.862Z,65
2016-02-02T02:19:13.550Z,65
2016-02-02T02:19:24.441Z,65
2016-02-02T02:19:35.003Z,65
2016-02-02T02:19:45.675Z,65
2016-02-02T02:19:56.146Z,65
2016-02-02T02:20:07.333Z,65
2016-02-02T02:20:19.302Z,65
2016-02-02T02:20:29.958Z,65
2016-02-02T02:20:40.396Z,65
2016-02-02T02:20:50.899Z,65
2016-02-02T02:21:01.867Z,65
2016-02-02T02:21:12.290Z,65
2016-02-02T02:21:22.947Z,65
2016-02-02T02:21:33.322Z,65
2016-02-02T02:21:43.650Z,65
2016-02-02T02:21:54.028Z,65
2016-02-02T02:22:04.621Z,65
2016-02-02T02:22:15.059Z,65
2016-02-02T02:22:25.434Z,65
2016-02-02T02:22:36.090Z,65
2016-02-02T02:22:47.543Z,65
2016-02-02T02:22:57.781Z,64
2016-02-02T02:23:08.156Z,64
2016-02-02T02:23:18.624Z,65
2016-02-02T02:23:29.031Z,65
2016-02-02T02:23:39.484Z,65
2016-02-02T02:23:50.033Z,65
2016-02-02T02:24:00.548Z,65
2016-02-02T02:24:11.189Z,64
2016-02-02T02:24:21.751Z,64
2016-02-02T02:24:35.376Z,64
2016-02-02T02:24:46.330Z,64
2016-02-02T02:25:18.287Z,64
2016-02-02T02:25:28.662Z,64
2016-02-02T02:25:39.209Z,64
2016-02-02T02:25:49.730Z,64
2016-02-02T02:26:00.230Z,64
2016-02-02T02:26:10.668Z,64
2016-02-02T02:26:21.214Z,64
2016-02-02T02:26:31.855Z,64
2016-02-02T02:26:42.964Z,64
2016-02-02T02:26:53.560Z,65
2016-02-02T02:27:04.091Z,64
2016-02-02T02:27:15.154Z,64
2016-02-02T02:27:25.732Z,64
2016-02-02T02:27:36.232Z,64
2016-02-02T02:27:46.716Z,64
2016-02-02T02:27:57.313Z,64
2016-02-02T02:28:08.063Z,64
2016-02-02T02:28:18.501Z,64
2016-02-02T02:28:29.032Z,64
2016-02-02T02:28:39.751Z,64
2016-02-02T02:28:50.051Z,64
2016-02-02T02:29:00.582Z,64
2016-02-02T02:29:10.927Z,64
2016-02-02T02:29:21.334Z,64
2016-02-02T02:29:31.818Z,64
2016-02-02T02:29:42.318Z,64
2016-02-02T02:29:52.649Z,64
2016-02-02T02:30:03.415Z,64
2016-02-02T02:30:14.868Z,64
2016-02-02T02:30:25.274Z,64
2016-02-02T02:34:25.301Z,64
2016-02-02T02:34:35.832Z,64
2016-02-02T02:34:46.332Z,64
2016-02-02T02:34:56.662Z,64
2016-02-02T02:35:09.006Z,64
2016-02-02T02:35:19.943Z,64
2016-02-02T02:35:30.443Z,64
2016-02-02T02:35:41.193Z,64
2016-02-02T02:35:51.368Z,64
2016-02-02T02:36:01.853Z,64
2016-02-02T02:36:12.103Z,64
2016-02-02T02:36:22.368Z,64
2016-02-02T02:36:32.900Z,64
2016-02-02T02:43:31.154Z,64
2016-02-02T02:43:41.748Z,64
2016-02-02T02:43:52.828Z,64
2016-02-02T02:44:03.547Z,64
2016-02-02T02:44:13.968Z,64
2016-02-02T02:44:24.328Z,64
2016-02-02T02:44:34.765Z,64
2016-02-02T02:44:45.562Z,64
2016-02-02T02:44:56.191Z,64
2016-02-02T02:45:07.051Z,64
2016-02-02T02:46:13.256Z,64
2016-02-02T02:46:23.584Z,64
2016-02-02T02:46:34.006Z,64
2016-02-02T02:46:44.493Z,64
2016-02-02T02:46:55.229Z,64
2016-02-02T02:47:05.995Z,64
2016-02-02T02:47:16.526Z,64
2016-02-02T02:47:27.120Z,64
2016-02-02T02:47:37.636Z,64
2016-02-02T02:47:48.073Z,64
2016-02-02T02:47:58.467Z,64
2016-02-02T02:48:08.982Z,64
2016-02-02T02:48:19.873Z,64
2016-02-02T02:48:30.404Z,64
2016-02-02T02:48:40.732Z,64
2016-02-02T02:48:51.298Z,64
2016-02-02T02:49:01.876Z,64
2016-02-02T02:49:12.798Z,64
2016-02-02T02:49:23.423Z,64
2016-02-02T02:49:34.642Z,64
2016-02-02T02:49:45.360Z,64
2016-02-02T02:49:56.332Z,64
2016-02-02T02:50:06.832Z,64
2016-02-02T02:51:15.475Z,64
2016-02-02T02:51:26.069Z,64
2016-02-02T02:51:36.632Z,64
2016-02-02T02:51:47.148Z,64
2016-02-02T02:51:57.776Z,64
2016-02-02T02:52:08.322Z,64
2016-02-02T02:52:30.182Z,64
2016-02-02T02:52:40.619Z,64
2016-02-02T02:52:51.247Z,64
2016-02-02T02:53:01.591Z,64
2016-02-02T02:53:12.107Z,64
2016-02-02T02:53:22.700Z,64
2016-02-02T02:53:33.154Z,64
2016-02-02T02:53:43.810Z,64
2016-02-02T02:53:54.375Z,64
2016-02-02T02:54:04.782Z,65
2016-02-02T02:54:15.469Z,65
2016-02-02T02:54:26.032Z,65
2016-02-02T02:54:36.969Z,65
2016-02-02T02:54:48.844Z,65
2016-02-02T02:54:59.440Z,65
2016-02-02T02:55:11.424Z,65
2016-02-02T02:55:22.237Z,64
2016-02-02T02:55:33.159Z,64
2016-02-02T02:55:43.643Z,65
2016-02-02T02:55:54.552Z,65
2016-02-02T02:56:05.369Z,65
2016-02-02T02:56:16.009Z,64
2016-02-02T02:56:26.572Z,64
2016-02-02T02:56:37.525Z,64
2016-02-02T02:56:48.103Z,65
2016-02-02T02:56:58.714Z,64
2016-02-02T02:57:09.996Z,64
2016-02-02T02:57:20.980Z,64
2016-02-02T02:57:32.230Z,64
2016-02-02T02:57:46.902Z,64
2016-02-02T02:57:57.452Z,65
2016-02-02T02:58:07.889Z,65
2016-02-02T02:58:18.374Z,65
2016-02-02T02:58:28.828Z,65
2016-02-02T02:58:39.593Z,65
2016-02-02T02:58:50.221Z,65
2016-02-02T02:59:07.178Z,65
2016-02-02T02:59:17.678Z,65
2016-02-02T02:59:28.272Z,65
2016-02-02T02:59:38.757Z,65
2016-02-02T02:59:49.710Z,65
2016-02-02T03:00:00.180Z,65
2016-02-02T03:00:11.196Z,65
2016-02-02T03:00:22.399Z,65
2016-02-02T03:01:39.387Z,65
2016-02-02T03:01:50.012Z,65
2016-02-02T03:02:00.436Z,65
2016-02-02T03:02:11.108Z,65
2016-02-02T03:02:21.390Z,65
2016-02-02T03:02:31.811Z,66
2016-02-02T03:02:42.483Z,66
2016-02-02T03:02:53.032Z,66
2016-02-02T03:03:03.908Z,66
2016-02-02T03:03:14.502Z,66
2016-02-02T03:03:25.268Z,66
2016-02-02T03:03:35.830Z,66
2016-02-02T03:03:46.252Z,66
2016-02-02T03:03:57.521Z,66
2016-02-02T03:04:08.864Z,66
2016-02-02T03:04:19.493Z,66
2016-02-02T03:04:30.087Z,66
2016-02-02T03:04:40.540Z,66
2016-02-02T03:04:51.292Z,66
2016-02-02T03:05:02.526Z,66
2016-02-02T03:05:13.495Z,66
2016-02-02T03:05:25.386Z,66
2016-02-02T03:05:36.730Z,66
2016-02-02T03:05:47.370Z,66
2016-02-02T03:05:57.874Z,66
2016-02-02T03:06:08.374Z,66
2016-02-02T03:06:19.405Z,66
2016-02-02T03:06:30.077Z,66
2016-02-02T03:06:40.468Z,66
2016-02-02T03:06:51.299Z,66
2016-02-02T03:07:01.768Z,66
2016-02-02T03:07:12.190Z,66
2016-02-02T03:07:22.783Z,66
2016-02-02T03:07:33.440Z,66
2016-02-02T03:07:43.941Z,66
2016-02-02T03:07:54.786Z,66
2016-02-02T03:08:05.411Z,66
2016-02-02T03:08:16.146Z,66
2016-02-02T03:08:26.646Z,66
2016-02-02T03:08:37.365Z,66
2016-02-02T03:08:47.646Z,66
2016-02-02T03:08:58.648Z,66
2016-02-02T03:09:09.101Z,66
2016-02-02T03:09:19.757Z,66
2016-02-02T03:09:31.132Z,66
2016-02-02T03:09:41.851Z,66
2016-02-02T03:09:52.479Z,66
2016-02-02T03:10:03.073Z,66
2016-02-02T03:10:14.307Z,66
2016-02-02T03:10:26.401Z,66
2016-02-02T03:11:23.794Z,66
2016-02-02T03:11:34.029Z,66
2016-02-02T03:11:44.327Z,66
2016-02-02T03:11:55.064Z,66
2016-02-02T03:12:06.236Z,66
2016-02-02T03:12:16.533Z,66
2016-02-02T03:12:26.924Z,66
2016-02-02T03:12:37.471Z,66
2016-02-02T03:12:48.221Z,66
2016-02-02T03:12:58.583Z,66
2016-02-02T03:13:08.958Z,66
2016-02-02T03:13:19.411Z,66
2016-02-02T03:13:32.114Z,66
2016-02-02T03:13:43.038Z,66
2016-02-02T03:13:53.400Z,66
2016-02-02T03:14:03.759Z,66
2016-02-02T03:14:14.259Z,66
2016-02-02T03:14:24.666Z,66
2016-02-02T03:14:35.588Z,66
2016-02-02T03:14:45.933Z,66
2016-02-02T03:14:56.264Z,66
2016-02-02T03:15:06.858Z,66
2016-02-02T03:15:18.014Z,65
2016-02-02T03:15:28.749Z,66
2016-02-02T03:15:41.436Z,66
2016-02-02T03:15:51.688Z,66
2016-02-02T03:16:02.001Z,66
2016-02-02T03:16:12.266Z,66
2016-02-02T03:16:22.704Z,66
2016-02-02T03:16:33.923Z,66
2016-02-02T03:16:44.298Z,66
2016-02-02T03:20:05.513Z,66
2016-02-02T03:20:16.044Z,66
2016-02-02T03:20:26.841Z,66
2016-02-02T03:20:37.513Z,66
2016-02-02T03:20:48.169Z,65
2016-02-02T03:20:58.594Z,65
2016-02-02T03:21:09.047Z,65
2016-02-02T03:21:20.141Z,65
2016-02-02T03:21:30.609Z,65
2016-02-02T03:21:41.219Z,66
2016-02-02T03:21:51.721Z,65
2016-02-02T03:22:02.283Z,65
2016-02-02T03:22:12.815Z,65
2016-02-02T03:22:23.283Z,65
2016-02-02T03:22:33.752Z,65
2016-02-02T03:22:44.221Z,65
2016-02-02T03:22:54.787Z,65
2016-02-02T03:23:05.537Z,65
2016-02-02T03:23:15.944Z,65
2016-02-02T03:23:26.537Z,65
2016-02-02T03:23:37.272Z,66
2016-02-02T03:23:47.850Z,65
2016-02-02T03:23:59.184Z,66
2016-02-02T03:25:04.765Z,65
2016-02-02T03:25:15.437Z,65
2016-02-02T03:25:25.890Z,65
2016-02-02T03:25:36.390Z,66
2016-02-02T03:25:46.984Z,66
2016-02-02T03:26:49.924Z,66
2016-02-02T03:27:00.629Z,66
2016-02-02T03:27:11.194Z,66
2016-02-02T03:27:21.663Z,66
2016-02-02T03:27:32.038Z,66
2016-02-02T03:27:42.584Z,66
2016-02-02T03:28:47.606Z,66
2016-02-02T03:29:38.733Z,66
2016-02-02T03:29:49.061Z,66
2016-02-02T03:29:59.487Z,66
2016-02-02T03:30:12.431Z,66
2016-02-02T03:38:09.081Z,65
2016-02-02T03:38:19.644Z,65
2016-02-02T03:38:30.191Z,65
2016-02-02T03:38:40.691Z,65
2016-02-02T03:38:57.475Z,65
2016-02-02T03:39:08.116Z,65
2016-02-02T03:39:18.834Z,65
2016-02-02T03:39:29.491Z,65
2016-02-02T03:39:41.084Z,65
2016-02-02T03:39:51.772Z,65
2016-02-02T03:40:04.086Z,65
2016-02-02T03:41:13.745Z,65
2016-02-02T03:41:23.870Z,65
2016-02-02T03:41:34.198Z,65
2016-02-02T03:41:44.557Z,64
2016-02-02T03:41:54.919Z,64
2016-02-02T03:42:05.107Z,64
2016-02-02T03:42:15.357Z,64
2016-02-02T03:42:25.685Z,64
2016-02-02T03:42:36.579Z,64
2016-02-02T03:42:46.813Z,64
2016-02-02T03:42:57.437Z,64
2016-02-02T03:43:08.171Z,64
2016-02-02T03:43:18.374Z,64
2016-02-02T03:43:28.578Z,64
2016-02-02T03:43:39.671Z,64
2016-02-02T03:43:50.406Z,64
2016-02-02T03:44:00.553Z,64
2016-02-02T03:44:11.084Z,64
2016-02-02T03:44:21.334Z,64
2016-02-02T03:44:31.834Z,64
2016-02-02T03:44:42.319Z,65
2016-02-02T03:44:53.731Z,64
2016-02-02T03:45:04.279Z,64
2016-02-02T03:45:15.232Z,64
2016-02-02T03:45:25.607Z,64
2016-02-02T03:45:35.967Z,65
2016-02-02T03:45:46.217Z,65
2016-02-02T03:45:56.380Z,64
2016-02-02T03:46:06.567Z,64
2016-02-02T03:46:17.020Z,64
2016-02-02T03:46:27.317Z,64
2016-02-02T03:46:37.552Z,64
2016-02-02T03:46:47.708Z,64
2016-02-02T03:46:58.090Z,64
2016-02-02T03:47:17.294Z,64
2016-02-02T03:47:27.606Z,64
2016-02-02T03:47:37.856Z,64
2016-02-02T03:47:48.434Z,64
2016-02-02T03:47:59.083Z,64
2016-02-02T03:48:10.021Z,64
2016-02-02T03:48:20.490Z,64
2016-02-02T03:48:31.818Z,64
2016-02-02T03:48:42.365Z,64
2016-02-02T03:48:52.973Z,64
2016-02-02T03:49:07.754Z,64
2016-02-02T03:49:18.129Z,64
2016-02-02T03:49:28.911Z,64
2016-02-02T03:49:39.992Z,64
2016-02-02T03:49:50.242Z,64
2016-02-02T03:50:00.771Z,64
2016-02-02T03:50:11.490Z,64
2016-02-02T03:50:22.380Z,64
2016-02-02T03:50:32.505Z,64
2016-02-02T03:50:43.068Z,64
2016-02-02T03:50:53.285Z,64
2016-02-02T03:51:03.551Z,63
2016-02-02T03:51:13.864Z,63
2016-02-02T03:51:24.129Z,63
2016-02-02T03:51:34.504Z,63
2016-02-02T03:51:44.754Z,63
2016-02-02T03:51:55.128Z,63
2016-02-02T03:52:05.503Z,63
2016-02-02T03:52:15.691Z,63
2016-02-02T03:52:26.628Z,63
2016-02-02T03:52:37.159Z,63
2016-02-02T03:52:47.425Z,63
2016-02-02T03:52:57.518Z,63
2016-02-02T03:53:07.940Z,63
2016-02-02T03:53:18.299Z,64
2016-02-02T03:53:28.705Z,63
2016-02-02T03:53:39.955Z,63
2016-02-02T03:53:50.237Z,63
2016-02-02T03:54:01.269Z,63
2016-02-02T03:54:11.659Z,64
2016-02-02T03:54:22.082Z,63
2016-02-02T03:54:32.504Z,63
2016-02-02T03:54:43.239Z,63
2016-02-02T03:54:53.583Z,63
2016-02-02T03:56:26.569Z,64
2016-02-02T03:56:37.131Z,64
2016-02-02T03:56:47.819Z,63
2016-02-02T03:56:58.085Z,63
2016-02-02T03:57:08.460Z,63
2016-02-02T03:57:18.913Z,63
2016-02-02T03:57:29.648Z,63
2016-02-02T03:57:40.351Z,63
2016-02-02T03:57:51.507Z,63
2016-02-02T03:58:02.275Z,63
2016-02-02T03:58:19.150Z,63
2016-02-02T03:58:30.462Z,63
2016-02-02T03:58:41.509Z,63
2016-02-02T03:58:52.306Z,63
2016-02-02T03:59:03.278Z,63
2016-02-02T03:59:16.700Z,63
2016-02-02T03:59:27.872Z,64
2016-02-02T03:59:38.606Z,64
2016-02-02T03:59:48.731Z,64
2016-02-02T03:59:59.452Z,64
2016-02-02T04:00:15.358Z,64
2016-02-02T04:00:25.858Z,64
2016-02-02T04:01:30.171Z,64
2016-02-02T04:02:31.517Z,63
2016-02-02T04:02:41.877Z,63
2016-02-02T04:02:52.064Z,63
2016-02-02T04:03:02.255Z,63
2016-02-02T04:03:12.536Z,63
2016-02-02T04:03:22.989Z,63
2016-02-02T04:03:33.739Z,63
2016-02-02T04:04:41.745Z,64
2016-02-02T04:04:51.948Z,63
2016-02-02T04:05:02.498Z,63
2016-02-02T04:05:43.248Z,64
2016-02-02T04:05:54.266Z,64
2016-02-02T04:06:04.735Z,64
2016-02-02T04:06:15.313Z,64
2016-02-02T04:06:25.954Z,64
2016-02-02T04:06:36.407Z,64
2016-02-02T04:06:47.173Z,64
2016-02-02T04:06:57.770Z,64
2016-02-02T04:07:08.333Z,64
2016-02-02T04:07:18.989Z,64
2016-02-02T04:07:29.724Z,63
2016-02-02T04:07:40.349Z,63
2016-02-02T04:07:51.145Z,63
2016-02-02T04:08:01.851Z,63
2016-02-02T04:08:12.272Z,63
2016-02-02T04:08:22.647Z,63
2016-02-02T04:08:33.147Z,63
2016-02-02T04:08:43.522Z,63
2016-02-02T04:08:54.150Z,63
2016-02-02T04:09:04.697Z,63
2016-02-02T04:09:15.307Z,64
2016-02-02T04:09:26.088Z,64
2016-02-02T04:09:36.604Z,63
2016-02-02T04:09:47.229Z,64
2016-02-02T04:09:57.887Z,64
2016-02-02T04:10:09.637Z,64
2016-02-02T04:10:22.184Z,63
2016-02-02T04:10:32.621Z,63
2016-02-02T04:10:43.419Z,63
2016-02-02T04:10:54.078Z,63
2016-02-02T04:11:04.625Z,63
2016-02-02T04:11:15.656Z,64
2016-02-02T04:11:26.172Z,64
2016-02-02T04:11:36.625Z,63
2016-02-02T04:11:47.016Z,63
2016-02-02T04:11:57.769Z,63
2016-02-02T04:12:08.534Z,63
2016-02-02T04:12:19.128Z,63
2016-02-02T04:12:29.753Z,63
2016-02-02T04:12:41.081Z,63
2016-02-02T04:12:51.706Z,63
2016-02-02T04:13:03.458Z,63
2016-02-02T04:13:13.958Z,63
2016-02-02T04:13:24.599Z,63
2016-02-02T04:13:35.115Z,63
2016-02-02T04:13:45.693Z,63
2016-02-02T04:13:56.133Z,63
2016-02-02T04:14:06.602Z,63
2016-02-02T04:14:17.211Z,63
2016-02-02T04:14:27.883Z,63
2016-02-02T04:14:52.914Z,63
2016-02-02T04:15:04.824Z,63
2016-02-02T04:15:16.965Z,63
2016-02-02T04:15:27.481Z,63
2016-02-02T04:15:39.278Z,63
2016-02-02T04:15:49.622Z,63
2016-02-02T04:15:59.859Z,63
2016-02-02T04:16:10.234Z,63
2016-02-02T04:16:20.531Z,63
2016-02-02T04:16:31.359Z,63
2016-02-02T04:16:47.828Z,62
2016-02-02T04:16:58.108Z,63
2016-02-02T04:17:08.530Z,63
2016-02-02T04:17:18.795Z,63
2016-02-02T04:17:29.483Z,63
2016-02-02T04:17:39.795Z,63
2016-02-02T04:17:50.030Z,63
2016-02-02T04:18:01.736Z,63
2016-02-02T04:18:12.392Z,63
2016-02-02T04:18:22.580Z,63
2016-02-02T04:18:32.986Z,63
2016-02-02T04:18:43.283Z,63
2016-02-02T04:18:53.705Z,63
2016-02-02T04:19:04.161Z,63
2016-02-02T04:19:14.598Z,63
2016-02-02T04:19:25.083Z,63
2016-02-02T04:19:35.364Z,63
2016-02-02T04:23:50.672Z,63
2016-02-02T04:24:02.488Z,63
2016-02-02T04:24:12.895Z,63
2016-02-02T04:24:23.348Z,63
2016-02-02T04:24:33.552Z,63
2016-02-02T04:24:43.927Z,63
2016-02-02T04:24:54.161Z,63
2016-02-02T04:25:04.476Z,63
2016-02-02T04:25:16.538Z,63
2016-02-02T04:25:26.913Z,63
2016-02-02T04:25:37.304Z,63
2016-02-02T04:25:47.694Z,63
2016-02-02T04:25:57.962Z,63
2016-02-02T04:26:08.212Z,63
2016-02-02T04:26:19.275Z,63
2016-02-02T04:26:29.681Z,63
2016-02-02T04:26:40.071Z,63
2016-02-02T04:26:50.290Z,63
2016-02-02T04:27:00.497Z,63
2016-02-02T04:27:10.841Z,62
2016-02-02T04:27:21.154Z,63
2016-02-02T04:27:31.529Z,63
2016-02-02T04:27:41.779Z,63
2016-02-02T04:27:51.950Z,63
2016-02-02T04:28:02.188Z,63
2016-02-02T04:28:12.469Z,63
2016-02-02T04:28:22.578Z,62
2016-02-02T04:28:32.953Z,62
2016-02-02T04:28:43.438Z,62
2016-02-02T04:28:53.844Z,62
2016-02-02T04:29:04.253Z,63
2016-02-02T04:29:14.347Z,63
2016-02-02T04:29:25.098Z,63
2016-02-02T04:29:35.535Z,63
2016-02-02T04:29:45.723Z,63
2016-02-02T04:29:56.006Z,63
2016-02-02T04:31:03.978Z,63
2016-02-02T04:31:14.165Z,63
2016-02-02T04:31:24.384Z,62
2016-02-02T04:31:34.729Z,62
2016-02-02T04:31:45.151Z,62
2016-02-02T04:31:55.701Z,62
2016-02-02T04:32:06.138Z,62
2016-02-02T04:32:16.326Z,62
2016-02-02T04:32:26.560Z,62
2016-02-02T04:32:36.701Z,62
2016-02-02T04:32:59.703Z,62
2016-02-02T04:33:09.968Z,62
2016-02-02T04:33:20.187Z,62
2016-02-02T04:33:31.328Z,62
2016-02-02T04:33:41.687Z,62
2016-02-02T04:33:51.859Z,62
2016-02-02T04:34:02.112Z,62
2016-02-02T04:34:12.378Z,62
2016-02-02T04:34:22.628Z,62
2016-02-02T04:34:33.112Z,62
2016-02-02T04:34:43.628Z,62
2016-02-02T04:34:53.862Z,62
2016-02-02T04:35:04.318Z,62
2016-02-02T04:36:11.070Z,62
2016-02-02T04:36:21.384Z,62
2016-02-02T04:36:32.087Z,62
2016-02-02T04:36:42.509Z,62
2016-02-02T04:36:52.962Z,62
2016-02-02T04:37:03.480Z,62